aviador You're here:

KLUK Decoded Metar

CINCINNATI in OH, USA
Report Time2017-07-23 00:16:00
UTC Time2017-07-23 00:53:22
Flight Rules vfr VFR
Wind290° at 07 kt
W.Decomp.*RWY 25: 5.0 kt HW 4.9 kt RCW
RWY 21: 0.7 kt HW 7.0 kt RCW
W.Rank290° ranks 22
Current wind is below 290° avg. (7.8)
Visibility9999 m
Phenomena:thunderstorm
Clouds:Broken 080 Hf
Broken 090 Hf
Expected CloudBase > 2,000 ft AGL from Temp-Dew spread
Ceiling8,000 ft
Temp28°C (ISA +14)
Dew Point23°C (74% RH)
Heat Index31.2°C
QNH1010 hPa
Density Alt2,592 ft
Elevation509 ft
Report Wrong Elevation
Raw Report
KLUK 230016Z 29007KT 10SM BKN080 BKN090 28/23 A2982 RMK AO2 PK WND
26034/2355 LTG DSNT SE-SW TS MOV E LTG DSNT SE T02830233=

Extra information for KLUK:More info

Metar Taf Metar & Taf Last 4 Metars F.Rules Stats Wind Profile Meteogram Temp Stats Airport Information Weather charts Add Link Nearby VenuesMetar ALERT Operation Metar Decoded Social comments

AIRNAV info for KLUK